Levering, MI (49755)

6:10 PM EDT on August 04, 2015 (GMT -0400)
Creekside, 4 Miles WSW Bliss | | Change Station
CLOSE
Current Station
Personal Weather Station
Location: Bliss Township, MI
Elevation: 708 ft
Nearby Weather Stations

Elev 708 ft 45.65 °N, 84.92 °W | Updated 3 seconds ago

Partly Cloudy
Partly Cloudy
67.0 °F
Feels Like 67.0 °F
N
9.0
Wind Variable Wind from WNW
Gusts 14.0 mph

Today
High -- | Low -- °F
--% Chance of Precip.
Yesterday
High -- | Low -- °F
Precip. -- in
6:26 AM 9:04 PM
Waning Gibbous, 74% visible
Pressure 29.94 in
Visibility 10.0 miles
Clouds Scattered Clouds 3900 ft
Mostly Cloudy 5000 ft
Mostly Cloudy 8500 ft
Dew Point 51 °F
Humidity 57%
Rainfall 0.02 in
Snow Depth Not available.
UV 2 out of 12
Pollen 6.30 out of 12
Air Quality Not available.
Flu Activity Not available.
METAR KPLN 042154Z AUTO 30011KT 10SM SCT039 BKN050 BKN085 21/11 A2994 RMK AO2 SLP137 T02060106

More Conditions Fewer Conditions

Pressure 29.94 in
Visibility 10.0 miles
Clouds Scattered Clouds 3900 ft
Mostly Cloudy 5000 ft
Mostly Cloudy 8500 ft
Dew Point 51 °F
Humidity 57%
Rainfall 0.02 in
Snow Depth Not available.
UV 2 out of 12
Pollen 6.30 out of 12
Air Quality Not available.
Flu Activity Not available.
METAR KPLN 042154Z AUTO 30011KT 10SM SCT039 BKN050 BKN085 21/11 A2994 RMK AO2 SLP137 T02060106

More Conditions Fewer Conditions

Nowcast | as of 6:00 PM EDT on August 4, 2015

At 7 PM...mostly clear. Slight chance of showers. Temperature 65. West winds 12 mph. At 9 PM...mostly clear. Temperature 61. Northwest winds 9 mph. At 11 PM...mostly clear. Temperature 57. Northwest winds 7 mph. At 1 am...mostly clear. Temperature 55. Northwest winds 6 mph.

×

10-Day Weather Forecast

×

Almanac

Astronomy

Aug. 04, 2015 Rise Set
Actual Time
Civil Twilight
Nautical Twilight
Astronomical Twilight
Moon
Length of Visible Light
Length of Day
Tomorrow will be .
, % of the Moon is Illuminated

Today's Extremes

State Highs State Lows

Community

WunderPhotos

Upload Photos

1,844,002 photos uploaded!

WunderBlogs® & News

Nearby

Air Quality

  Air Quality AQ Index Pollutant
Not available.

Snow Depth

Station Depth Elevation

Earthquake Activity

City Distance Mag. Time & Date
Minimum magnitude displayed is 2.5.

Coastal Water Temperatures

Place Temperature

Stations

Nearby Weather Stations

Station Location Temp. Windchill Dew Point Humidity Wind Precip. Elev Updated Type